createdAt,value
2023-03-27T00:05:42.371Z,7.00
2023-03-27T00:10:03.774Z,7.40
2023-03-27T00:28:39.687Z,7.90
2023-03-27T00:51:58.782Z,5.10
2023-03-27T01:01:35.830Z,5.00
2023-03-27T01:16:28.916Z,3.50
2023-03-27T01:20:57.398Z,2.20
2023-03-27T01:25:34.854Z,2.60
2023-03-27T01:35:05.933Z,3.10
2023-03-27T01:39:57.971Z,2.80
2023-03-27T01:45:30.998Z,4.40
2023-03-27T01:50:25.830Z,5.20
2023-03-27T01:55:14.175Z,6.80
2023-03-27T02:05:26.304Z,7.80
2023-03-27T02:09:39.088Z,10.70
2023-03-27T02:24:36.083Z,12.70
2023-03-27T02:29:35.093Z,7.90
2023-03-27T02:35:07.023Z,9.10
2023-03-27T02:39:28.248Z,10.30
2023-03-27T02:44:14.797Z,9.30
2023-03-27T02:54:28.126Z,8.00
2023-03-27T02:59:28.317Z,7.30
2023-03-27T03:09:16.968Z,6.80
2023-03-27T03:14:02.982Z,7.20
2023-03-27T03:18:35.619Z,5.00
2023-03-27T03:23:25.391Z,5.90
2023-03-27T03:27:44.349Z,6.10
2023-03-27T03:50:25.516Z,4.10
2023-03-27T03:54:30.009Z,3.10
2023-03-27T03:58:38.882Z,3.50
2023-03-27T04:03:08.688Z,3.30
2023-03-27T04:07:12.693Z,4.20
2023-03-27T04:11:16.033Z,3.00
2023-03-27T04:15:21.597Z,4.20
2023-03-27T04:19:26.030Z,4.20
2023-03-27T04:23:31.939Z,3.80
2023-03-27T04:27:36.043Z,3.10
2023-03-27T04:31:41.635Z,2.70
2023-03-27T04:40:51.543Z,4.10
2023-03-27T04:45:31.668Z,3.50
2023-03-27T04:59:06.607Z,2.40
2023-03-27T05:08:13.687Z,2.40
2023-03-27T05:13:24.341Z,2.70
2023-03-27T05:18:19.805Z,2.20
2023-03-27T05:23:15.826Z,2.80
2023-03-27T05:42:37.936Z,2.00
2023-03-27T05:47:11.164Z,2.60
2023-03-27T05:52:08.752Z,4.10
2023-03-27T05:57:02.234Z,1.70
2023-03-27T06:01:56.881Z,1.30
2023-03-27T06:07:06.393Z,1.90
2023-03-27T06:12:09.161Z,2.60
2023-03-27T06:21:47.331Z,3.90
2023-03-27T06:26:32.857Z,3.70
2023-03-27T06:31:32.107Z,3.30
2023-03-27T06:41:18.256Z,7.10
2023-03-27T06:45:36.365Z,5.60
2023-03-27T06:53:47.199Z,5.50
2023-03-27T06:57:56.471Z,5.10
2023-03-27T07:02:00.036Z,5.00
2023-03-27T07:06:03.920Z,5.10
2023-03-27T07:10:09.464Z,4.80
2023-03-27T07:14:13.460Z,8.30
2023-03-27T07:18:17.315Z,7.40
2023-03-27T07:22:24.080Z,6.30
2023-03-27T07:26:30.090Z,6.00
2023-03-27T07:30:35.655Z,5.20
2023-03-27T07:34:42.307Z,5.00
2023-03-27T07:38:49.466Z,4.80
2023-03-27T07:47:35.758Z,4.90
2023-03-27T07:52:24.371Z,3.60
2023-03-27T08:01:06.134Z,3.60
2023-03-27T08:05:11.430Z,4.00
2023-03-27T08:09:14.487Z,1.70
2023-03-27T08:13:18.504Z,1.70
2023-03-27T08:17:22.191Z,3.50
2023-03-27T08:21:25.444Z,2.30
2023-03-27T08:25:29.955Z,1.90
2023-03-27T08:29:32.972Z,2.90
2023-03-27T08:33:36.565Z,3.20
2023-03-27T08:37:39.801Z,2.60
2023-03-27T08:41:52.303Z,1.50
2023-03-27T08:46:05.495Z,2.00
2023-03-27T08:50:34.907Z,1.40
2023-03-27T08:54:39.854Z,1.80
2023-03-27T08:58:44.717Z,1.40
2023-03-27T09:03:10.034Z,1.80
2023-03-27T09:07:44.422Z,1.10
2023-03-27T09:12:22.680Z,1.70
2023-03-27T09:16:31.180Z,1.00
2023-03-27T09:20:56.364Z,2.20
2023-03-27T09:25:04.433Z,2.10
2023-03-27T09:29:20.602Z,2.20
2023-03-27T09:33:25.669Z,2.40
2023-03-27T09:37:28.802Z,2.40
2023-03-27T09:41:39.156Z,2.60
2023-03-27T09:45:44.653Z,1.90
2023-03-27T09:49:53.633Z,2.20
2023-03-27T09:53:58.712Z,1.40
2023-03-27T09:58:15.881Z,2.00
2023-03-27T10:02:23.092Z,2.20
2023-03-27T10:06:39.193Z,1.10
2023-03-27T10:10:45.906Z,1.80
2023-03-27T10:14:52.783Z,1.70
2023-03-27T10:18:59.426Z,1.80
2023-03-27T10:23:08.554Z,1.80
2023-03-27T10:27:19.650Z,1.00
2023-03-27T10:31:28.583Z,1.60
2023-03-27T10:35:44.556Z,1.20
2023-03-27T10:39:47.880Z,1.20
2023-03-27T10:43:53.244Z,1.10
2023-03-27T10:48:00.085Z,1.10
2023-03-27T10:52:17.086Z,1.10
2023-03-27T10:56:26.547Z,0.90
2023-03-27T11:00:43.630Z,0.80
2023-03-27T11:05:02.521Z,0.80
2023-03-27T11:09:16.262Z,1.00
2023-03-27T11:13:31.059Z,0.90
2023-03-27T11:17:52.134Z,0.50
2023-03-27T11:22:00.302Z,0.40
2023-03-27T11:26:06.191Z,1.00
2023-03-27T11:30:10.258Z,0.50
2023-03-27T11:34:28.398Z,0.30
2023-03-27T11:38:41.443Z,0.60
2023-03-27T11:42:46.644Z,0.60
2023-03-27T11:46:58.640Z,0.50
2023-03-27T11:51:31.486Z,0.80
2023-03-27T11:55:37.224Z,0.60
2023-03-27T11:59:40.238Z,1.50
2023-03-27T12:04:09.335Z,0.70
2023-03-27T12:08:55.676Z,0.60
2023-03-27T12:13:10.655Z,0.40
2023-03-27T12:17:51.926Z,0.90
2023-03-27T12:22:22.570Z,0.40
2023-03-27T12:26:53.351Z,0.90
2023-03-27T12:31:21.233Z,0.40
2023-03-27T12:35:27.324Z,0.10
2023-03-27T12:39:30.572Z,0.80
2023-03-27T12:43:39.961Z,0.60
2023-03-27T12:48:06.568Z,0.90
2023-03-27T12:52:10.345Z,0.30
2023-03-27T12:56:16.598Z,0.70
2023-03-27T13:00:28.814Z,15.50
2023-03-27T13:04:50.205Z,0.60
2023-03-27T13:09:31.449Z,0.70
2023-03-27T13:14:02.928Z,1.10
2023-03-27T13:18:44.742Z,0.40
2023-03-27T13:23:06.622Z,1.00
2023-03-27T13:27:37.519Z,0.50
2023-03-27T13:31:46.393Z,0.40
2023-03-27T13:35:58.696Z,0.90
2023-03-27T13:40:07.511Z,0.90
2023-03-27T13:44:19.930Z,0.50
2023-03-27T13:48:28.812Z,0.40
2023-03-27T13:53:08.380Z,0.80
2023-03-27T13:57:41.391Z,1.10
2023-03-27T14:02:14.923Z,0.40
2023-03-27T14:06:29.971Z,0.80
2023-03-27T14:10:39.399Z,1.00
2023-03-27T14:15:04.123Z,1.10
2023-03-27T14:19:22.538Z,0.70
2023-03-27T14:23:49.588Z,0.80
2023-03-27T14:27:55.031Z,0.50
2023-03-27T14:32:07.570Z,0.70
2023-03-27T14:36:17.100Z,0.70
2023-03-27T14:40:29.704Z,0.70
2023-03-27T14:44:33.352Z,0.40
2023-03-27T14:48:42.996Z,0.70
2023-03-27T14:52:51.765Z,0.30
2023-03-27T14:56:58.458Z,0.90
2023-03-27T15:01:01.926Z,0.80
2023-03-27T15:05:18.257Z,0.30
2023-03-27T15:09:24.236Z,0.90
2023-03-27T15:13:34.146Z,1.10
2023-03-27T15:17:38.824Z,1.00
2023-03-27T15:21:51.180Z,0.40
2023-03-27T15:26:02.824Z,4.20
2023-03-27T15:30:29.253Z,1.90
2023-03-27T15:34:38.172Z,0.80
2023-03-27T15:38:43.083Z,0.80
2023-03-27T15:42:52.121Z,1.20
2023-03-27T15:46:58.049Z,0.80
2023-03-27T15:51:26.941Z,0.70
2023-03-27T15:55:55.326Z,1.30
2023-03-27T16:00:10.333Z,1.60
2023-03-27T16:04:21.893Z,1.80
2023-03-27T16:08:34.749Z,1.50
2023-03-27T16:12:41.592Z,1.30
2023-03-27T16:16:44.879Z,0.90
2023-03-27T16:20:48.090Z,1.20
2023-03-27T16:24:52.838Z,0.80
2023-03-27T16:29:00.887Z,1.00
2023-03-27T16:33:14.015Z,1.60
2023-03-27T16:37:21.485Z,1.20
2023-03-27T16:41:24.822Z,0.90
2023-03-27T16:45:28.026Z,0.80
2023-03-27T16:49:31.119Z,1.80
2023-03-27T16:53:34.148Z,1.10
2023-03-27T16:57:37.377Z,1.50
2023-03-27T17:01:40.524Z,1.90
2023-03-27T17:05:44.276Z,2.80
2023-03-27T17:09:47.361Z,2.50
2023-03-27T17:13:50.774Z,2.30
2023-03-27T17:17:53.968Z,1.00
2023-03-27T17:21:57.099Z,1.20
2023-03-27T17:26:02.047Z,1.00
2023-03-27T17:30:07.319Z,1.70
2023-03-27T17:34:11.214Z,1.00
2023-03-27T17:38:15.087Z,1.80
2023-03-27T17:42:18.708Z,1.60
2023-03-27T17:46:22.683Z,1.30
2023-03-27T17:50:26.766Z,3.00
2023-03-27T17:54:30.040Z,4.70
2023-03-27T17:58:35.114Z,3.00
2023-03-27T18:02:39.045Z,1.60
2023-03-27T18:06:42.562Z,2.50
2023-03-27T18:10:54.908Z,3.30
2023-03-27T18:14:58.984Z,3.50
2023-03-27T18:19:02.688Z,4.10
2023-03-27T18:23:06.472Z,5.00
2023-03-27T18:27:10.320Z,4.70
2023-03-27T18:31:17.921Z,5.60
2023-03-27T18:35:21.477Z,6.70
2023-03-27T18:39:24.863Z,7.40
2023-03-27T18:43:29.238Z,8.70
2023-03-27T18:47:33.211Z,6.60
2023-03-27T18:51:36.593Z,6.20
2023-03-27T18:55:39.757Z,4.20
2023-03-27T18:59:47.001Z,3.40
2023-03-27T19:03:53.464Z,4.80
2023-03-27T19:12:04.140Z,7.40
2023-03-27T19:16:13.996Z,4.00
2023-03-27T19:20:18.606Z,5.40
2023-03-27T19:24:21.842Z,6.40
2023-03-27T19:28:25.130Z,4.10
2023-03-27T19:32:28.851Z,3.60
2023-03-27T19:36:32.464Z,3.30
2023-03-27T19:40:35.738Z,4.00
2023-03-27T19:44:39.136Z,3.50
2023-03-27T19:48:43.006Z,3.30
2023-03-27T19:52:57.289Z,3.10
2023-03-27T19:57:09.298Z,2.90
2023-03-27T20:01:12.548Z,3.00
2023-03-27T20:05:16.163Z,3.80
2023-03-27T20:09:20.035Z,3.00
2023-03-27T20:13:23.205Z,4.10
2023-03-27T20:17:28.224Z,4.40
2023-03-27T20:21:41.707Z,4.20
2023-03-27T20:25:45.503Z,4.30
2023-03-27T20:29:49.314Z,3.00
2023-03-27T20:33:53.339Z,4.80
2023-03-27T20:37:57.087Z,5.50
2023-03-27T20:42:00.238Z,4.90
2023-03-27T20:46:05.305Z,3.70
2023-03-27T20:50:09.689Z,4.80
2023-03-27T20:54:14.339Z,3.50
2023-03-27T20:58:17.634Z,4.70
2023-03-27T21:02:21.886Z,6.00
2023-03-27T21:06:25.947Z,5.40
2023-03-27T21:10:28.944Z,5.80
2023-03-27T21:14:32.706Z,5.60
2023-03-27T21:18:35.980Z,4.30
2023-03-27T21:22:39.076Z,6.30
2023-03-27T21:26:42.537Z,3.00
2023-03-27T21:30:49.011Z,4.30
2023-03-27T21:34:52.499Z,2.90
2023-03-27T21:38:56.381Z,4.30
2023-03-27T21:42:59.918Z,4.00
2023-03-27T21:47:03.028Z,3.80
2023-03-27T21:51:07.384Z,4.10
2023-03-27T21:55:11.065Z,2.80
2023-03-27T21:59:14.432Z,3.10
2023-03-27T22:03:18.701Z,3.20
2023-03-27T22:07:21.838Z,5.40
2023-03-27T22:11:25.208Z,3.20
2023-03-27T22:15:29.498Z,2.90
2023-03-27T22:19:33.169Z,3.20
2023-03-27T22:23:36.585Z,2.10
2023-03-27T22:27:40.213Z,2.10
2023-03-27T22:31:43.885Z,2.20
2023-03-27T22:35:50.474Z,1.90
2023-03-27T22:39:54.553Z,1.90
2023-03-27T22:44:00.428Z,2.20
2023-03-27T22:48:05.671Z,2.50
2023-03-27T22:52:08.848Z,2.40
2023-03-27T22:56:12.023Z,3.40
2023-03-27T23:00:15.970Z,2.80
2023-03-27T23:04:18.944Z,1.80
2023-03-27T23:08:32.906Z,2.10
2023-03-27T23:12:36.338Z,3.10
2023-03-27T23:16:39.980Z,2.10
2023-03-27T23:20:43.108Z,2.30
2023-03-27T23:24:46.317Z,2.40
2023-03-27T23:28:49.642Z,2.50
2023-03-27T23:32:52.910Z,1.40
2023-03-27T23:36:56.444Z,1.50
2023-03-27T23:41:01.986Z,1.80
2023-03-27T23:45:06.762Z,1.80
2023-03-27T23:49:13.140Z,2.80
2023-03-27T23:53:16.302Z,1.80
2023-03-27T23:57:19.771Z,5.10
